Time;durP1;ratioP1;P1;durP2;ratioP2;P2;SDS_P1;SDS_P2;PMS_P1;PMS_P2;Temp;Humidity;BMP_temperature;BMP_pressure;BME280_temperature;BME280_humidity;BME280_pressure;Samples;Min_cycle;Max_cycle;Signal;HPM_P1;HPM_P2
2021/12/23 00:00:14;;;;;;;18.07;9.23;;;-1.20;66.60;;;-1.68;52.38;95861.41;4998494;28;20457;-60
2021/12/23 00:02:41;;;;;;;17.30;9.33;;;-1.20;66.40;;;-1.72;52.54;95859.81;5002433;28;20885;-58
2021/12/23 00:05:10;;;;;;;17.20;9.43;;;-1.30;66.50;;;-1.76;53.11;95860.78;4996524;28;20445;-59
2021/12/23 00:07:37;;;;;;;26.83;9.97;;;-1.30;66.60;;;-1.80;52.40;95869.47;4993756;28;20733;-57
2021/12/23 00:10:07;;;;;;;13.83;7.77;;;-1.30;66.60;;;-1.83;53.24;95866.97;5003827;28;20458;-58
2021/12/23 00:12:37;;;;;;;18.07;9.53;;;-1.40;66.80;;;-1.87;52.74;95868.78;5006343;28;21010;-57
2021/12/23 00:15:09;;;;;;;16.70;9.53;;;-1.40;66.90;;;-1.88;52.54;95867.09;5006894;28;20462;-56
2021/12/23 00:17:59;;;;;;;12.87;8.40;;;-1.40;67.00;;;-1.89;53.35;95862.84;5006815;28;20470;-57
2021/12/23 00:23:27;;;;;;;12.97;7.70;;;-1.50;67.00;;;-1.94;52.80;95869.81;5003730;28;20604;-57
2021/12/23 00:26:00;;;;;;;14.97;8.10;;;-1.50;66.80;;;-1.97;53.28;95862.16;5004701;28;20488;-56
2021/12/23 00:28:28;;;;;;;14.80;8.00;;;-1.50;67.00;;;-1.98;52.35;95868.22;5011034;28;20486;-58
2021/12/23 00:30:57;;;;;;;17.33;7.80;;;-1.50;67.10;;;-1.99;53.46;95869.09;5005382;28;20477;-59
2021/12/23 00:33:24;;;;;;;8.40;6.70;;;-1.50;67.20;;;-2.00;52.95;95864.81;4998818;28;20504;-59
2021/12/23 00:35:53;;;;;;;15.70;7.97;;;-1.50;67.30;;;-2.00;52.86;95865.69;4999385;28;20446;-60
2021/12/23 00:38:24;;;;;;;7.63;6.63;;;-1.50;67.40;;;-2.00;53.75;95867.41;5005759;28;20458;-57
2021/12/23 00:40:52;;;;;;;14.83;7.80;;;-1.50;67.50;;;-2.00;53.45;95867.41;5006395;28;20481;-57
2021/12/23 00:43:20;;;;;;;8.90;6.60;;;-1.50;67.40;;;-1.98;52.85;95870.81;5002987;28;20458;-57
2021/12/23 00:45:48;;;;;;;15.10;6.60;;;-1.50;67.40;;;-1.97;53.60;95869.91;5006074;28;20454;-56
2021/12/23 00:48:17;;;;;;;8.27;6.50;;;-1.50;67.60;;;-1.98;53.54;95871.63;5003449;28;22152;-59
2021/12/23 00:50:44;;;;;;;11.13;6.03;;;-1.50;67.50;;;-1.99;53.23;95863.94;5005312;28;20449;-58
2021/12/23 00:53:17;;;;;;;9.20;5.50;;;-1.50;67.30;;;-2.01;53.23;95863.16;4999467;28;20458;-59
2021/12/23 00:55:45;;;;;;;8.93;6.10;;;-1.50;67.50;;;-2.01;52.93;95856.25;4998634;28;20450;-59
2021/12/23 00:58:12;;;;;;;9.53;5.90;;;-1.50;67.50;;;-2.02;53.43;95848.56;4997772;28;20459;-60
2021/12/23 01:00:39;;;;;;;12.73;7.10;;;-1.50;67.50;;;-2.04;53.26;95847.75;5000521;28;20449;-59
2021/12/23 01:03:07;;;;;;;8.60;6.10;;;-1.60;67.40;;;-2.06;53.58;95844.34;5005258;28;20454;-59
2021/12/23 01:05:35;;;;;;;7.30;6.03;;;-1.60;67.40;;;-2.09;53.61;95842.72;5004996;28;20454;-59
2021/12/23 01:08:02;;;;;;;10.17;6.80;;;-1.60;67.30;;;-2.13;52.78;95848.00;5001821;28;20457;-59
2021/12/23 01:10:30;;;;;;;9.50;6.50;;;-1.70;67.70;;;-2.18;53.25;95851.53;5003805;28;20457;-57
2021/12/23 01:13:00;;;;;;;8.10;6.30;;;-1.70;67.70;;;-2.20;53.59;95845.56;5004477;28;20455;-58
2021/12/23 01:15:50;;;;;;;10.70;6.57;;;-1.70;67.70;;;-2.20;53.07;95844.72;5007688;28;20468;-58
2021/12/23 01:18:20;;;;;;;8.23;6.30;;;-1.70;67.80;;;-2.20;53.81;95844.72;4995576;28;20542;-56
2021/12/23 01:20:53;;;;;;;8.93;6.60;;;-1.70;67.80;;;-2.21;53.54;95835.31;5002268;28;21078;-57
2021/12/23 01:23:22;;;;;;;10.03;6.13;;;-1.70;67.90;;;-2.21;53.07;95840.47;5002110;28;20655;-56
2021/12/23 01:25:49;;;;;;;13.37;6.87;;;-1.80;67.80;;;-2.22;53.76;95844.75;5003209;28;21008;-58
2021/12/23 01:28:17;;;;;;;10.80;8.20;;;-1.70;68.00;;;-2.23;53.44;95831.91;5001659;28;20457;-56
2021/12/23 01:30:44;;;;;;;11.30;7.20;;;-1.80;68.10;;;-2.24;53.67;95838.78;5002590;28;20954;-57
2021/12/23 01:33:11;;;;;;;13.73;7.50;;;-1.80;67.90;;;-2.26;53.38;95830.28;5002495;28;20465;-58
2021/12/23 01:35:39;;;;;;;15.10;7.77;;;-1.80;68.20;;;-2.28;54.17;95834.59;5005063;28;20454;-56
2021/12/23 01:38:08;;;;;;;11.60;7.33;;;-1.80;68.40;;;-2.27;53.13;95827.72;4999832;28;20454;-58
2021/12/23 01:40:36;;;;;;;11.37;6.70;;;-1.80;68.30;;;-2.27;53.21;95831.16;5001125;28;20446;-55
2021/12/23 01:43:04;;;;;;;14.80;8.47;;;-1.80;68.30;;;-2.27;53.35;95826.00;5005772;28;20486;-55
2021/12/23 01:45:33;;;;;;;12.57;8.20;;;-1.80;68.30;;;-2.27;53.73;95826.00;4999620;28;20473;-57
2021/12/23 01:48:01;;;;;;;20.63;8.40;;;-1.80;68.30;;;-2.28;53.76;95819.13;4996725;28;20827;-58
2021/12/23 01:50:29;;;;;;;12.30;7.60;;;-1.80;68.30;;;-2.30;54.04;95815.75;5002226;28;20982;-56
2021/12/23 01:52:56;;;;;;;17.53;8.90;;;-1.80;68.20;;;-2.32;54.08;95817.53;5003460;28;20481;-59
2021/12/23 01:55:25;;;;;;;15.53;8.13;;;-1.80;68.30;;;-2.33;54.11;95815.00;5002087;28;20458;-58
2021/12/23 01:57:53;;;;;;;20.57;10.17;;;-1.80;68.30;;;-2.35;54.35;95822.78;5003504;28;20480;-59
2021/12/23 02:00:22;;;;;;;20.30;9.80;;;-1.90;68.60;;;-2.38;54.25;95828.84;5002459;28;20458;-59
2021/12/23 02:02:50;;;;;;;16.83;9.00;;;-1.90;68.50;;;-2.40;53.92;95819.44;5005771;28;20497;-56
2021/12/23 02:05:18;;;;;;;22.73;10.63;;;-1.90;68.60;;;-2.44;53.48;95828.16;5001831;28;20524;-55
2021/12/23 02:07:45;;;;;;;21.53;11.13;;;-2.00;68.60;;;-2.48;53.82;95835.09;4996798;28;20517;-57
2021/12/23 02:10:12;;;;;;;23.23;11.40;;;-2.00;68.40;;;-2.50;53.94;95833.44;4999071;28;20451;-56
2021/12/23 02:12:43;;;;;;;30.40;12.07;;;-2.00;68.50;;;-2.53;54.22;95835.19;5005705;28;20975;-60
2021/12/23 02:15:11;;;;;;;17.20;10.20;;;-2.00;68.50;;;-2.58;53.80;95836.22;5002525;28;20494;-56
2021/12/23 02:17:39;;;;;;;14.07;8.33;;;-2.10;68.80;;;-2.59;54.56;95840.50;5001958;28;20478;-58
2021/12/23 02:20:09;;;;;;;10.23;6.93;;;-2.10;69.00;;;-2.62;53.52;95844.88;5003029;28;20450;-59
2021/12/23 02:22:36;;;;;;;15.33;7.63;;;-2.10;69.00;;;-2.68;54.32;95837.31;5006451;28;21084;-56
2021/12/23 02:25:04;;;;;;;15.60;8.80;;;-2.20;68.80;;;-2.75;53.69;95834.88;5006324;28;20450;-57
2021/12/23 02:27:31;;;;;;;17.90;9.90;;;-2.20;69.20;;;-2.80;53.80;95841.03;5005426;28;20482;-59
2021/12/23 02:29:58;;;;;;;16.30;10.10;;;-2.30;69.80;;;-2.84;54.09;95834.25;5006341;28;20457;-59
2021/12/23 02:32:26;;;;;;;16.23;10.07;;;-2.30;70.20;;;-2.86;53.72;95833.44;4996351;28;20493;-56
2021/12/23 02:34:53;;;;;;;15.00;8.60;;;-2.40;69.30;;;-2.90;54.84;95833.50;4997102;28;20457;-58
2021/12/23 02:37:22;;;;;;;20.17;11.03;;;-2.40;69.30;;;-2.91;54.82;95838.69;5002908;28;20477;-56
2021/12/23 02:39:49;;;;;;;20.63;9.50;;;-2.40;69.90;;;-2.94;55.30;95831.88;5006118;28;20556;-55
2021/12/23 02:42:16;;;;;;;17.07;9.90;;;-2.40;69.90;;;-2.96;55.20;95833.66;5000239;28;20496;-58
2021/12/23 02:44:43;;;;;;;17.93;8.83;;;-2.40;70.30;;;-2.96;55.17;95836.22;5003459;28;20535;-57
2021/12/23 02:47:11;;;;;;;19.50;9.67;;;-2.40;70.00;;;-2.97;55.24;95825.97;5001476;28;20475;-58
2021/12/23 02:49:38;;;;;;;15.63;9.43;;;-2.50;70.20;;;-3.00;55.25;95832.00;5001256;28;20461;-58
2021/12/23 02:52:06;;;;;;;18.10;10.50;;;-2.50;70.00;;;-3.02;55.09;95831.22;5002990;28;20533;-57
2021/12/23 02:54:34;;;;;;;18.27;9.53;;;-2.50;70.00;;;-3.06;55.30;95824.44;5000256;28;20447;-60
2021/12/23 02:57:02;;;;;;;17.50;9.67;;;-2.50;70.70;;;-3.11;54.45;95821.13;4997133;28;20474;-58
2021/12/23 02:59:29;;;;;;;16.33;8.83;;;-2.60;70.30;;;-3.14;54.93;95816.88;4996884;28;20533;-58
2021/12/23 03:01:56;;;;;;;16.13;8.40;;;-2.60;70.60;;;-3.16;55.02;95818.66;4995886;28;21011;-60
2021/12/23 03:04:23;;;;;;;12.43;7.30;;;-2.60;70.60;;;-3.16;55.62;95818.66;5003835;28;20464;-57
2021/12/23 03:06:51;;;;;;;16.20;7.60;;;-2.60;70.60;;;-3.16;55.09;95808.34;5001198;28;20544;-56
2021/12/23 03:09:18;;;;;;;14.57;8.83;;;-2.70;70.50;;;-3.19;55.38;95797.28;5003776;28;20450;-60
2021/12/23 03:11:47;;;;;;;17.37;8.57;;;-2.70;71.30;;;-3.19;55.76;95807.56;5002482;28;20484;-57
2021/12/23 03:14:15;;;;;;;10.30;7.67;;;-2.70;70.50;;;-3.21;54.51;95809.31;5004217;28;20491;-59
2021/12/23 03:16:42;;;;;;;17.90;8.03;;;-2.70;70.60;;;-3.23;55.12;95803.38;5001037;28;20466;-57
2021/12/23 03:19:09;;;;;;;15.83;8.50;;;-2.70;70.60;;;-3.26;55.58;95807.69;4997068;28;20470;-59
2021/12/23 03:21:37;;;;;;;18.33;8.13;;;-2.70;70.50;;;-3.28;55.97;95806.88;4998769;28;20482;-56
2021/12/23 03:24:05;;;;;;;9.30;7.00;;;-2.70;70.70;;;-3.28;55.81;95811.19;5000207;28;20863;-58
2021/12/23 03:26:32;;;;;;;15.90;8.57;;;-2.70;71.20;;;-3.30;55.24;95806.09;5001249;28;20478;-58
2021/12/23 03:29:01;;;;;;;10.50;7.67;;;-2.70;71.10;;;-3.30;56.26;95810.38;5002718;28;20447;-56
2021/12/23 03:31:28;;;;;;;17.93;8.23;;;-2.80;71.30;;;-3.37;55.42;95808.81;5001314;28;20522;-56
2021/12/23 03:33:55;;;;;;;11.80;7.90;;;-2.80;71.90;;;-3.40;55.11;95806.31;5000376;28;20462;-56
2021/12/23 03:36:23;;;;;;;14.43;7.70;;;-2.90;71.40;;;-3.42;56.33;95806.34;5001973;28;20482;-56
2021/12/23 03:38:50;;;;;;;13.33;8.30;;;-2.90;71.60;;;-3.44;55.82;95813.22;5001235;28;20453;-59
2021/12/23 03:41:17;;;;;;;10.30;7.20;;;-2.90;71.80;;;-3.44;55.95;95808.94;5006551;28;20508;-57
2021/12/23 03:43:44;;;;;;;12.47;7.00;;;-2.90;71.80;;;-3.46;55.61;95810.69;4998112;28;20486;-56
2021/12/23 03:46:13;;;;;;;13.13;7.43;;;-2.90;71.80;;;-3.46;56.24;95820.13;5001072;28;20591;-57
2021/12/23 03:48:40;;;;;;;11.23;8.03;;;-2.90;71.80;;;-3.46;55.03;95815.00;4998794;28;20465;-59
2021/12/23 03:51:08;;;;;;;15.03;8.80;;;-3.00;71.70;;;-3.46;56.31;95817.56;5004007;28;20473;-56
2021/12/23 03:53:35;;;;;;;12.40;7.53;;;-3.00;71.70;;;-3.47;54.77;95819.31;4999943;28;20458;-57
2021/12/23 03:56:02;;;;;;;12.30;7.60;;;-2.90;71.50;;;-3.49;55.76;95821.03;5003494;28;20474;-58
2021/12/23 03:58:30;;;;;;;13.83;8.30;;;-3.00;71.90;;;-3.49;55.59;95825.34;4997136;28;20875;-57
2021/12/23 04:00:57;;;;;;;10.20;7.03;;;-3.00;71.70;;;-3.51;56.21;95822.81;5006183;28;21075;-59
2021/12/23 04:03:26;;;;;;;12.90;7.80;;;-3.00;71.80;;;-3.51;55.87;95821.97;5000638;28;20881;-57
2021/12/23 04:05:53;;;;;;;22.33;8.43;;;-3.00;71.70;;;-3.51;55.52;95824.53;4999919;28;20481;-56
2021/12/23 04:08:20;;;;;;;15.03;8.20;;;-3.00;71.90;;;-3.52;56.03;95825.41;5003394;28;20461;-56
2021/12/23 04:10:47;;;;;;;19.13;8.17;;;-3.00;72.20;;;-3.52;56.10;95826.25;5007371;28;20539;-59
2021/12/23 04:13:15;;;;;;;16.57;8.80;;;-3.00;72.00;;;-3.53;56.49;95824.56;4999373;28;20458;-56
2021/12/23 04:15:42;;;;;;;13.70;7.73;;;-3.00;72.10;;;-3.54;55.86;95825.44;5000976;28;20468;-57
2021/12/23 04:18:09;;;;;;;18.50;8.43;;;-3.00;72.20;;;-3.53;55.29;95834.00;5001854;28;20449;-60
2021/12/23 04:20:53;;;;;;;16.53;8.33;;;-3.00;71.90;;;-3.56;55.99;95831.47;5003225;28;20453;-57
2021/12/23 04:23:21;;;;;;;15.20;8.77;;;-3.00;71.70;;;-3.67;55.81;95827.41;5002668;28;20473;-63
2021/12/23 04:25:48;;;;;;;17.37;9.17;;;-3.10;71.80;;;-3.75;56.85;95831.84;4997466;28;20917;-61
2021/12/23 04:28:15;;;;;;;13.33;9.03;;;-3.20;72.60;;;-3.78;56.71;95829.34;4994645;28;20458;-57
2021/12/23 04:30:43;;;;;;;14.80;8.70;;;-3.20;72.40;;;-3.78;55.71;95837.03;4999987;28;20493;-59
2021/12/23 04:33:10;;;;;;;22.03;9.00;;;-3.20;72.70;;;-3.80;56.58;95842.22;5001638;28;20465;-57
2021/12/23 04:35:39;;;;;;;15.00;8.87;;;-3.20;73.10;;;-3.79;56.09;95833.63;4997210;28;20994;-59
2021/12/23 04:38:06;;;;;;;14.13;9.77;;;-3.20;73.30;;;-3.77;56.63;95836.19;4995363;28;20458;-57
2021/12/23 04:40:36;;;;;;;14.40;9.70;;;-3.20;73.10;;;-3.77;56.48;95836.19;5002874;28;20453;-57
2021/12/23 04:43:04;;;;;;;22.90;9.10;;;-3.20;73.10;;;-3.77;56.35;95833.59;5002507;28;20925;-57
2021/12/23 04:45:32;;;;;;;18.50;10.33;;;-3.20;73.40;;;-3.75;56.89;95839.56;5001407;28;20454;-58
2021/12/23 04:47:59;;;;;;;17.23;8.33;;;-3.20;74.00;;;-3.74;57.11;95835.28;5004998;28;20473;-56
2021/12/23 04:50:26;;;;;;;19.23;11.80;;;-3.20;74.30;;;-3.74;56.40;95830.13;5000360;28;20459;-56
2021/12/23 04:52:55;;;;;;;16.33;9.83;;;-3.20;73.80;;;-3.74;57.26;95838.69;5000667;28;20473;-56
2021/12/23 04:55:22;;;;;;;23.00;11.03;;;-3.20;74.00;;;-3.74;56.72;95830.13;4997934;28;20481;-57
2021/12/23 04:57:50;;;;;;;21.90;12.47;;;-3.20;73.80;;;-3.74;56.75;95836.13;4996767;28;20489;-56
2021/12/23 05:00:20;;;;;;;23.73;12.43;;;-3.20;74.00;;;-3.75;57.45;95842.13;4997591;28;20457;-57
2021/12/23 05:02:47;;;;;;;24.77;13.10;;;-3.20;74.40;;;-3.75;56.99;95839.56;5003073;28;20500;-57
2021/12/23 05:05:14;;;;;;;37.63;20.00;;;-3.20;74.50;;;-3.74;57.18;95848.97;5005959;28;20454;-56
2021/12/23 05:07:42;;;;;;;53.23;23.60;;;-3.20;74.60;;;-3.75;56.80;95838.72;5003474;28;21049;-56
2021/12/23 05:10:12;;;;;;;52.10;21.73;;;-3.20;74.20;;;-3.78;57.32;95840.47;5003552;28;20454;-57
2021/12/23 05:12:43;;;;;;;36.43;17.90;;;-3.20;75.00;;;-3.81;57.44;95844.81;5003779;28;20489;-55
2021/12/23 05:15:11;;;;;;;21.43;11.20;;;-3.30;75.60;;;-3.88;57.80;95841.53;5006711;28;20454;-56
2021/12/23 05:17:38;;;;;;;19.93;10.10;;;-3.30;74.70;;;-3.92;57.80;95836.47;4995774;28;20550;-57
2021/12/23 05:20:07;;;;;;;20.73;10.93;;;-3.30;74.70;;;-3.94;56.86;95838.22;5003727;28;20513;-59
2021/12/23 05:22:34;;;;;;;19.13;10.37;;;-3.40;74.70;;;-3.93;56.92;95839.91;5006000;28;20489;-58
2021/12/23 05:25:02;;;;;;;17.73;10.57;;;-3.40;74.20;;;-3.91;56.88;95835.59;4994815;28;20462;-59
2021/12/23 05:27:31;;;;;;;21.87;11.20;;;-3.40;74.00;;;-3.90;56.56;95834.69;5008333;28;20566;-60
2021/12/23 05:29:58;;;;;;;18.27;10.10;;;-3.40;74.50;;;-3.91;57.49;95833.03;5007022;28;20451;-57
2021/12/23 05:32:25;;;;;;;23.40;12.77;;;-3.30;74.10;;;-3.94;57.32;95827.94;5007170;28;20849;-57
2021/12/23 05:34:52;;;;;;;29.23;16.13;;;-3.40;73.60;;;-3.95;57.01;95837.41;5003086;28;20454;-59
2021/12/23 05:37:20;;;;;;;26.50;13.03;;;-3.40;73.50;;;-3.98;57.07;95834.88;5005693;28;20471;-58
2021/12/23 05:39:47;;;;;;;24.80;13.00;;;-3.40;73.50;;;-4.03;56.60;95841.81;5001715;28;20967;-62
2021/12/23 05:42:15;;;;;;;21.13;11.03;;;-3.40;73.50;;;-4.10;57.04;95841.06;5000356;28;20493;-58
2021/12/23 05:44:44;;;;;;;30.93;13.30;;;-3.50;73.10;;;-4.17;56.91;95842.06;4993486;28;20532;-57
2021/12/23 05:47:11;;;;;;;26.40;13.03;;;-3.50;73.40;;;-4.24;57.04;95835.34;4992891;28;20904;-56
2021/12/23 05:49:39;;;;;;;24.87;12.23;;;-3.60;73.40;;;-4.30;57.47;95832.88;5000592;28;20456;-59
2021/12/23 05:52:07;;;;;;;20.07;11.30;;;-3.70;73.50;;;-4.35;57.42;95833.81;5004443;28;20474;-60
2021/12/23 05:54:34;;;;;;;23.10;13.27;;;-3.70;73.80;;;-4.40;57.36;95838.19;4999174;28;20458;-57
2021/12/23 05:57:02;;;;;;;19.53;9.10;;;-3.80;74.10;;;-4.40;56.52;95837.31;5002430;28;20477;-60
2021/12/23 05:59:30;;;;;;;15.40;9.20;;;-3.80;74.00;;;-4.41;56.93;95833.91;4996515;28;20494;-60
2021/12/23 06:01:59;;;;;;;20.50;10.30;;;-3.80;74.20;;;-4.40;56.72;95842.44;5003776;28;20547;-59
2021/12/23 06:04:26;;;;;;;23.70;12.80;;;-3.80;74.30;;;-4.36;57.52;95844.94;4995868;28;20494;-59
2021/12/23 06:06:54;;;;;;;34.40;12.23;;;-3.80;74.70;;;-4.34;56.83;95853.47;4999732;28;20554;-57
2021/12/23 06:09:21;;;;;;;22.00;12.03;;;-3.70;74.90;;;-4.27;57.17;95846.50;4999989;28;20520;-59
2021/12/23 06:11:48;;;;;;;23.43;11.30;;;-3.70;74.80;;;-4.23;57.07;95853.28;5003326;28;20476;-58
2021/12/23 06:14:18;;;;;;;21.50;11.70;;;-3.70;74.80;;;-4.16;56.83;95848.88;5000481;28;20464;-57
2021/12/23 06:16:46;;;;;;;24.60;11.90;;;-3.60;74.80;;;-3.99;57.63;95854.56;4997231;28;20478;-58
2021/12/23 06:19:14;;;;;;;23.20;12.23;;;-3.40;75.30;;;-3.55;57.83;95853.75;4999782;28;20512;-57
2021/12/23 06:21:42;;;;;;;28.83;15.40;;;-3.00;75.60;;;-2.95;57.08;95850.75;5001872;28;20565;-58
2021/12/23 06:24:09;;;;;;;25.20;13.50;;;-2.50;75.30;;;-2.26;56.02;95847.44;4997710;28;20497;-57
2021/12/23 06:26:37;;;;;;;29.50;15.00;;;-1.80;74.10;;;-1.58;54.40;95851.69;5002824;28;20482;-58
2021/12/23 06:29:04;;;;;;;39.47;13.57;;;-1.10;72.30;;;-0.90;53.15;95854.91;5002492;28;20466;-59
2021/12/23 06:31:31;;;;;;;20.93;11.27;;;-0.40;70.70;;;-0.27;52.44;95855.53;4994543;28;21085;-60
2021/12/23 06:33:59;;;;;;;21.63;12.30;;;0.30;68.80;;;0.34;49.87;95850.03;4995577;28;20564;-60
2021/12/23 06:36:28;;;;;;;22.13;11.30;;;0.90;65.70;;;0.92;50.48;95838.47;4993836;28;20502;-60
2021/12/23 06:38:55;;;;;;;17.47;11.40;;;1.50;64.80;;;1.50;48.40;95844.91;4995395;28;20450;-57
2021/12/23 06:41:23;;;;;;;27.60;14.00;;;2.10;62.60;;;2.06;48.28;95840.91;5001103;28;20526;-59
2021/12/23 06:43:50;;;;;;;23.73;12.73;;;2.70;60.50;;;2.60;47.20;95833.41;5001606;28;20525;-57
2021/12/23 06:46:17;;;;;;;35.80;11.47;;;3.20;60.00;;;3.12;46.46;95836.25;5001669;28;20474;-58
2021/12/23 06:48:45;;;;;;;23.73;14.27;;;3.80;59.50;;;3.58;45.51;95833.28;5001547;28;20534;-59
2021/12/23 06:51:12;;;;;;;27.50;13.70;;;4.20;57.60;;;3.88;44.83;95830.09;5000658;28;20504;-61
2021/12/23 06:53:41;;;;;;;25.63;14.70;;;4.50;55.90;;;4.08;43.43;95834.31;5002470;28;20460;-59
2021/12/23 06:56:10;;;;;;;46.03;18.87;;;4.80;53.90;;;4.40;42.47;95831.84;4994929;28;20477;-59
2021/12/23 06:58:39;;;;;;;40.60;17.60;;;5.10;53.70;;;4.87;43.25;95833.75;5000098;28;20459;-59
2021/12/23 07:01:06;;;;;;;67.03;22.27;;;5.60;54.10;;;5.42;42.47;95836.91;4994704;28;20554;-60
2021/12/23 07:03:51;;;;;;;71.53;26.33;;;6.10;53.30;;;5.87;41.20;95836.13;4997837;28;20520;-61
2021/12/23 07:06:23;;;;;;;63.30;24.00;;;6.60;51.20;;;6.33;40.24;95842.25;4999452;28;20474;-60
2021/12/23 07:08:53;;;;;;;53.30;21.60;;;7.10;50.40;;;6.75;39.32;95836.22;5002019;28;20442;-59
2021/12/23 07:11:21;;;;;;;47.17;24.20;;;7.40;49.00;;;7.12;38.79;95830.53;5001682;28;20482;-60
2021/12/23 07:13:48;;;;;;;60.20;27.33;;;7.80;48.10;;;7.42;38.58;95838.25;4999810;28;20462;-60
2021/12/23 07:16:16;;;;;;;60.43;29.27;;;8.10;48.10;;;7.73;38.56;95836.31;4995268;28;20477;-59
2021/12/23 07:18:43;;;;;;;53.07;28.50;;;8.40;47.90;;;8.00;38.05;95840.72;4992872;28;20457;-58
2021/12/23 07:21:11;;;;;;;56.63;27.00;;;8.60;46.80;;;8.26;37.91;95839.00;4992384;28;20533;-58
2021/12/23 07:23:38;;;;;;;58.20;29.23;;;8.90;46.80;;;8.49;36.90;95845.34;4992647;28;20584;-59
2021/12/23 07:26:07;;;;;;;65.70;30.07;;;9.20;45.20;;;8.76;37.08;95841.81;4994780;28;20517;-61
2021/12/23 07:28:34;;;;;;;72.50;28.57;;;9.50;45.70;;;9.00;36.11;95841.06;4996641;28;20461;-59
2021/12/23 07:31:02;;;;;;;71.77;31.67;;;9.80;44.60;;;9.17;35.38;95846.00;5003278;28;20473;-60
2021/12/23 07:33:29;;;;;;;73.23;29.57;;;10.00;43.30;;;9.31;35.13;95853.72;5000789;28;20466;-60
2021/12/23 07:35:56;;;;;;;67.83;27.77;;;10.20;41.90;;;9.50;35.79;95855.91;4999903;28;20469;-61
2021/12/23 07:38:24;;;;;;;58.10;26.00;;;10.40;42.60;;;9.76;35.26;95849.72;4993691;28;20462;-59
2021/12/23 07:40:51;;;;;;;74.93;28.37;;;10.70;42.70;;;10.00;34.61;95850.56;5003540;28;21082;-61
2021/12/23 07:43:44;;;;;;;65.53;29.57;;;10.90;41.70;;;10.21;34.25;95857.84;4995274;28;20490;-59
2021/12/23 07:46:11;;;;;;;54.20;26.80;;;11.10;41.10;;;10.46;32.92;95846.38;4991386;28;20553;-58
2021/12/23 07:48:38;;;;;;;57.07;27.90;;;11.40;40.00;;;10.72;33.37;95856.69;4994024;28;20541;-59
2021/12/23 07:51:06;;;;;;;58.00;28.47;;;11.50;40.10;;;10.93;32.33;95847.16;4998517;28;21061;-58
2021/12/23 07:53:34;;;;;;;53.87;24.90;;;11.60;39.50;;;11.09;32.28;95856.53;5002200;28;20450;-60
2021/12/23 07:56:01;;;;;;;43.10;25.90;;;11.70;38.90;;;11.16;32.47;95846.38;5000958;28;21018;-58
2021/12/23 07:58:30;;;;;;;52.70;25.60;;;11.60;38.70;;;11.27;32.02;95844.56;5003624;28;20545;-61
2021/12/23 08:00:57;;;;;;;45.77;24.47;;;11.60;39.20;;;11.34;32.20;95850.22;4999055;28;20493;-60
2021/12/23 08:03:25;;;;;;;41.00;21.70;;;11.60;39.10;;;11.38;32.01;95843.72;4995669;28;20519;-60
2021/12/23 08:05:53;;;;;;;40.77;21.30;;;11.50;38.80;;;11.50;32.52;95849.00;4993109;28;20812;-58
2021/12/23 08:08:20;;;;;;;45.33;23.40;;;11.60;39.30;;;11.61;32.27;95843.72;4990986;28;20478;-61
2021/12/23 08:10:50;;;;;;;38.83;20.60;;;11.70;40.10;;;11.72;32.13;95843.69;4992862;28;20486;-60
2021/12/23 08:13:17;;;;;;;36.37;18.47;;;11.80;38.90;;;11.91;31.62;95842.19;4993453;28;20486;-60
2021/12/23 08:15:46;;;;;;;31.93;18.03;;;11.90;38.80;;;12.09;31.69;95839.91;5002658;28;20462;-60
2021/12/23 08:18:13;;;;;;;38.47;22.47;;;12.10;38.80;;;12.30;31.53;95842.56;4997581;28;20472;-59
2021/12/23 08:20:41;;;;;;;33.03;18.57;;;12.30;38.60;;;12.49;31.37;95837.47;5001000;28;20453;-58
2021/12/23 08:23:08;;;;;;;28.80;17.00;;;12.40;38.50;;;12.65;29.36;95833.53;4998478;28;20540;-60
2021/12/23 08:25:35;;;;;;;26.43;15.27;;;12.60;36.10;;;12.60;29.67;95843.66;5001281;28;20470;-59
2021/12/23 08:28:03;;;;;;;24.60;15.27;;;12.60;35.70;;;12.58;29.82;95829.72;5002012;28;20869;-57
2021/12/23 08:30:32;;;;;;;25.80;14.77;;;12.60;36.40;;;12.52;30.26;95828.47;4995571;28;20481;-59
2021/12/23 08:33:01;;;;;;;26.43;15.20;;;12.50;36.30;;;12.54;30.58;95832.63;5000436;28;20468;-59
2021/12/23 08:35:28;;;;;;;27.23;15.10;;;12.50;36.90;;;12.55;30.36;95831.69;4997372;28;20817;-58
2021/12/23 08:37:56;;;;;;;23.73;14.83;;;12.50;36.10;;;12.61;30.57;95827.69;5005044;28;20853;-58
2021/12/23 08:40:25;;;;;;;30.77;14.53;;;12.60;37.20;;;12.67;30.12;95834.25;5005142;28;20477;-60
2021/12/23 08:42:53;;;;;;;29.47;14.30;;;12.60;36.10;;;12.74;29.93;95824.84;5006460;28;21243;-59
2021/12/23 08:45:20;;;;;;;21.93;12.73;;;12.70;36.40;;;12.76;29.91;95830.81;5002438;28;20866;-59
2021/12/23 08:47:48;;;;;;;30.00;14.00;;;12.70;36.50;;;12.76;30.03;95825.53;5004066;28;20474;-58
2021/12/23 08:50:17;;;;;;;27.07;15.73;;;12.70;36.40;;;12.81;29.91;95815.47;5000596;28;20469;-59
2021/12/23 08:52:44;;;;;;;23.60;12.50;;;12.80;36.30;;;12.81;29.38;95814.59;5001789;28;20470;-59
2021/12/23 08:55:12;;;;;;;27.67;13.93;;;12.80;35.30;;;12.65;29.06;95812.44;4994196;28;20460;-61
2021/12/23 08:57:39;;;;;;;23.13;13.77;;;12.70;34.30;;;12.49;29.04;95802.34;5000763;28;21022;-58
2021/12/23 09:00:10;;;;;;;20.80;14.40;;;12.50;34.90;;;12.41;29.46;95805.63;5009919;28;20508;-58
2021/12/23 09:02:37;;;;;;;22.60;12.73;;;12.40;35.50;;;12.37;30.25;95801.53;4997518;28;20470;-58
2021/12/23 09:05:06;;;;;;;20.77;12.83;;;12.30;36.40;;;12.42;29.42;95788.78;5001466;28;21053;-58
2021/12/23 09:07:35;;;;;;;26.10;12.80;;;12.40;36.40;;;12.45;29.74;95787.72;4997845;28;20469;-57
2021/12/23 09:10:02;;;;;;;30.30;14.07;;;12.40;35.50;;;12.47;29.40;95785.78;5001111;28;20908;-58
2021/12/23 09:12:30;;;;;;;19.60;12.80;;;12.40;35.50;;;12.54;27.85;95771.09;4999963;28;21022;-61
2021/12/23 09:14:57;;;;;;;27.00;13.37;;;12.50;34.00;;;12.61;29.68;95768.78;4998220;28;20454;-57
2021/12/23 09:17:24;;;;;;;22.40;12.97;;;12.60;36.00;;;12.70;28.30;95766.22;4995079;28;20528;-61
2021/12/23 09:19:52;;;;;;;20.23;11.60;;;12.60;35.10;;;12.73;27.90;95754.53;4994202;28;20443;-59
2021/12/23 09:22:19;;;;;;;23.07;13.43;;;12.70;33.80;;;12.74;29.11;95762.31;4993261;28;20607;-59
2021/12/23 09:24:52;;;;;;;25.27;14.90;;;12.60;34.80;;;12.83;29.25;95755.44;4999946;28;20488;-59
2021/12/23 09:27:28;;;;;;;26.93;14.33;;;12.70;35.20;;;12.99;28.91;95754.09;4997592;28;20462;-59
2021/12/23 09:32:52;;;;;;;23.77;15.10;;;13.00;34.30;;;13.35;28.64;95757.19;4999080;28;20477;-58
2021/12/23 09:35:20;;;;;;;27.50;14.63;;;13.20;34.90;;;13.51;27.92;95754.88;5000544;28;20512;-61
2021/12/23 09:37:47;;;;;;;29.53;15.53;;;13.40;34.50;;;13.67;27.55;95750.84;4999737;28;20498;-59
2021/12/23 09:40:17;;;;;;;27.40;14.80;;;13.50;34.00;;;13.79;28.20;95747.94;4996785;28;20517;-58
2021/12/23 09:42:45;;;;;;;22.07;13.87;;;13.70;34.20;;;13.98;27.67;95746.28;4993732;28;20474;-61
2021/12/23 09:45:14;;;;;;;27.30;15.47;;;13.80;33.20;;;14.10;26.09;95736.41;4994207;28;20696;-58
2021/12/23 09:47:42;;;;;;;27.80;13.63;;;13.90;32.00;;;14.12;27.43;95729.97;4997845;28;20478;-58
2021/12/23 09:50:11;;;;;;;25.90;15.43;;;14.00;33.00;;;14.24;26.69;95724.56;4997389;28;20450;-60
2021/12/23 09:52:42;;;;;;;32.20;16.90;;;14.10;32.30;;;14.37;27.11;95716.31;5001502;28;20485;-59
2021/12/23 09:55:10;;;;;;;26.40;15.93;;;14.10;33.00;;;14.58;26.91;95714.31;5003928;28;20468;-59
2021/12/23 09:57:39;;;;;;;31.00;15.80;;;14.30;33.20;;;14.79;26.78;95708.81;5005881;28;20481;-59
2021/12/23 10:00:11;;;;;;;27.17;15.53;;;14.50;32.60;;;15.03;26.41;95705.66;5002723;28;20453;-60
2021/12/23 10:02:40;;;;;;;34.93;16.33;;;14.80;32.30;;;15.26;26.03;95705.28;4997573;28;20493;-59
2021/12/23 10:05:11;;;;;;;27.33;16.60;;;15.00;32.00;;;15.52;23.96;95688.63;4994114;28;20490;-59
2021/12/23 10:07:40;;;;;;;30.80;17.33;;;15.20;29.70;;;15.54;25.71;95687.53;4993428;28;20560;-60
2021/12/23 10:10:14;;;;;;;35.77;18.90;;;15.30;31.30;;;15.54;23.60;95676.09;4998857;28;20715;-60
2021/12/23 10:32:46;;;;;;;37.30;17.33;;;16.50;30.90;;;17.12;24.52;95666.44;4993945;28;20906;-60
2021/12/23 10:38:04;;;;;;;30.87;17.00;;;17.10;29.50;;;18.14;24.29;95651.16;5000612;28;21018;-59
2021/12/23 10:40:31;;;;;;;24.93;16.60;;;17.60;30.00;;;18.61;23.57;95653.06;4999603;28;20516;-59
2021/12/23 10:42:59;;;;;;;30.20;18.17;;;18.00;29.40;;;18.96;22.91;95651.00;5002104;28;20461;-61